sensor_id;sensor_type;location;lat;lon;timestamp;temperature;humidity
45319;DHT22;31057;48.498;32.260;2023-07-08T00:01:46;19.90;99.90
45319;DHT22;31057;48.498;32.260;2023-07-08T00:03:49;19.80;99.90
45319;DHT22;31057;48.498;32.260;2023-07-08T00:05:53;19.80;99.90
45319;DHT22;31057;48.498;32.260;2023-07-08T00:07:57;19.70;99.90
45319;DHT22;31057;48.498;32.260;2023-07-08T00:09:58;19.70;99.90
45319;DHT22;31057;48.498;32.260;2023-07-08T00:12:00;19.60;99.90
45319;DHT22;31057;48.498;32.260;2023-07-08T00:14:02;19.50;99.90
45319;DHT22;31057;48.498;32.260;2023-07-08T00:16:04;19.10;99.90
45319;DHT22;31057;48.498;32.260;2023-07-08T00:18:13;19.00;99.90
45319;DHT22;31057;48.498;32.260;2023-07-08T00:20:23;19.00;99.90
45319;DHT22;31057;48.498;32.260;2023-07-08T00:22:30;19.00;99.90
45319;DHT22;31057;48.498;32.260;2023-07-08T00:24:32;19.00;99.90
45319;DHT22;31057;48.498;32.260;2023-07-08T00:26:34;19.00;99.90
45319;DHT22;31057;48.498;32.260;2023-07-08T00:28:35;19.00;99.90
45319;DHT22;31057;48.498;32.260;2023-07-08T00:30:37;19.00;99.90
45319;DHT22;31057;48.498;32.260;2023-07-08T00:32:39;19.00;99.90
45319;DHT22;31057;48.498;32.260;2023-07-08T00:34:43;19.00;99.90
45319;DHT22;31057;48.498;32.260;2023-07-08T00:36:45;19.00;99.90
45319;DHT22;31057;48.498;32.260;2023-07-08T00:38:47;18.90;99.90
45319;DHT22;31057;48.498;32.260;2023-07-08T00:40:57;18.90;99.90
45319;DHT22;31057;48.498;32.260;2023-07-08T00:43:01;18.80;99.90
45319;DHT22;31057;48.498;32.260;2023-07-08T00:45:10;18.70;99.90
45319;DHT22;31057;48.498;32.260;2023-07-08T00:47:16;18.70;99.90
45319;DHT22;31057;48.498;32.260;2023-07-08T07:41:54;23.60;99.90
45319;DHT22;31057;48.498;32.260;2023-07-08T07:50:03;23.10;99.90
45319;DHT22;31057;48.498;32.260;2023-07-08T07:52:05;23.00;99.90
45319;DHT22;31057;48.498;32.260;2023-07-08T07:54:07;23.10;99.90
45319;DHT22;31057;48.498;32.260;2023-07-08T07:56:09;23.30;99.90
45319;DHT22;31057;48.498;32.260;2023-07-08T07:58:11;23.40;99.90
45319;DHT22;31057;48.498;32.260;2023-07-08T08:00:13;23.30;99.90
45319;DHT22;31057;48.498;32.260;2023-07-08T08:02:17;23.30;99.90
45319;DHT22;31057;48.498;32.260;2023-07-08T08:04:19;23.40;99.90
45319;DHT22;31057;48.498;32.260;2023-07-08T08:06:21;23.50;99.90
45319;DHT22;31057;48.498;32.260;2023-07-08T08:08:24;23.60;99.90
45319;DHT22;31057;48.498;32.260;2023-07-08T08:10:26;23.80;99.90
45319;DHT22;31057;48.498;32.260;2023-07-08T08:12:27;23.70;99.90
45319;DHT22;31057;48.498;32.260;2023-07-08T08:14:41;23.90;99.90
45319;DHT22;31057;48.498;32.260;2023-07-08T08:16:43;24.00;99.90
45319;DHT22;31057;48.498;32.260;2023-07-08T08:18:45;23.80;99.90
45319;DHT22;31057;48.498;32.260;2023-07-08T08:20:46;23.70;99.90
45319;DHT22;31057;48.498;32.260;2023-07-08T08:22:51;23.90;99.90
45319;DHT22;31057;48.498;32.260;2023-07-08T08:24:53;24.00;99.90
45319;DHT22;31057;48.498;32.260;2023-07-08T08:26:55;24.20;99.90
45319;DHT22;31057;48.498;32.260;2023-07-08T08:28:57;24.40;99.90
45319;DHT22;31057;48.498;32.260;2023-07-08T08:30:59;24.30;99.90
45319;DHT22;31057;48.498;32.260;2023-07-08T08:33:01;24.50;99.90
45319;DHT22;31057;48.498;32.260;2023-07-08T08:35:03;24.40;99.90
45319;DHT22;31057;48.498;32.260;2023-07-08T08:37:05;24.60;99.90
45319;DHT22;31057;48.498;32.260;2023-07-08T08:39:07;24.30;99.90
45319;DHT22;31057;48.498;32.260;2023-07-08T08:41:12;24.60;99.90
45319;DHT22;31057;48.498;32.260;2023-07-08T08:43:19;24.20;99.90
45319;DHT22;31057;48.498;32.260;2023-07-08T08:45:23;24.20;99.90
45319;DHT22;31057;48.498;32.260;2023-07-08T08:47:37;24.10;99.90
45319;DHT22;31057;48.498;32.260;2023-07-08T08:49:48;23.90;99.90
45319;DHT22;31057;48.498;32.260;2023-07-08T08:51:52;23.80;99.90
45319;DHT22;31057;48.498;32.260;2023-07-08T08:53:55;23.90;99.90
45319;DHT22;31057;48.498;32.260;2023-07-08T08:56:05;23.80;99.90
45319;DHT22;31057;48.498;32.260;2023-07-08T08:58:28;23.70;99.90
45319;DHT22;31057;48.498;32.260;2023-07-08T09:05:10;23.40;99.90
45319;DHT22;31057;48.498;32.260;2023-07-08T09:07:16;23.30;99.90
45319;DHT22;31057;48.498;32.260;2023-07-08T09:09:20;23.30;99.90
45319;DHT22;31057;48.498;32.260;2023-07-08T09:11:39;23.00;99.90
45319;DHT22;31057;48.498;32.260;2023-07-08T09:13:42;23.00;99.90
45319;DHT22;31057;48.498;32.260;2023-07-08T09:15:44;22.90;99.90
45319;DHT22;31057;48.498;32.260;2023-07-08T09:17:46;22.80;99.90
45319;DHT22;31057;48.498;32.260;2023-07-08T09:19:50;22.70;99.90
45319;DHT22;31057;48.498;32.260;2023-07-08T09:24:00;22.60;99.90
45319;DHT22;31057;48.498;32.260;2023-07-08T09:26:05;22.60;99.90
45319;DHT22;31057;48.498;32.260;2023-07-08T09:28:08;22.70;99.90
45319;DHT22;31057;48.498;32.260;2023-07-08T09:30:14;22.70;99.90
45319;DHT22;31057;48.498;32.260;2023-07-08T09:32:17;22.60;99.90
45319;DHT22;31057;48.498;32.260;2023-07-08T09:34:21;22.50;99.90
45319;DHT22;31057;48.498;32.260;2023-07-08T09:36:24;22.30;99.90
45319;DHT22;31057;48.498;32.260;2023-07-08T09:38:26;22.30;99.90
45319;DHT22;31057;48.498;32.260;2023-07-08T09:40:29;22.30;99.90
45319;DHT22;31057;48.498;32.260;2023-07-08T09:42:32;22.30;99.90
45319;DHT22;31057;48.498;32.260;2023-07-08T09:44:34;22.20;99.90
45319;DHT22;31057;48.498;32.260;2023-07-08T09:46:36;22.20;99.90
45319;DHT22;31057;48.498;32.260;2023-07-08T09:48:41;22.10;99.90
45319;DHT22;31057;48.498;32.260;2023-07-08T09:50:43;22.20;99.90
45319;DHT22;31057;48.498;32.260;2023-07-08T09:52:46;22.30;99.90
45319;DHT22;31057;48.498;32.260;2023-07-08T09:54:47;22.30;99.90
45319;DHT22;31057;48.498;32.260;2023-07-08T09:56:52;22.30;99.90
45319;DHT22;31057;48.498;32.260;2023-07-08T09:58:56;22.30;99.90
45319;DHT22;31057;48.498;32.260;2023-07-08T10:00:59;22.20;99.90
45319;DHT22;31057;48.498;32.260;2023-07-08T10:03:11;22.30;99.90
45319;DHT22;31057;48.498;32.260;2023-07-08T10:07:16;22.40;99.90
45319;DHT22;31057;48.498;32.260;2023-07-08T10:09:19;22.40;99.90
45319;DHT22;31057;48.498;32.260;2023-07-08T10:11:29;22.40;99.90
45319;DHT22;31057;48.498;32.260;2023-07-08T10:13:37;22.50;99.90
45319;DHT22;31057;48.498;32.260;2023-07-08T10:15:41;22.30;99.90
45319;DHT22;31057;48.498;32.260;2023-07-08T10:17:44;22.50;99.90
45319;DHT22;31057;48.498;32.260;2023-07-08T10:19:46;22.50;99.90
45319;DHT22;31057;48.498;32.260;2023-07-08T10:26:00;22.70;99.90
45319;DHT22;31057;48.498;32.260;2023-07-08T10:30:26;23.10;99.90
45319;DHT22;31057;48.498;32.260;2023-07-08T10:34:42;22.90;99.90
45319;DHT22;31057;48.498;32.260;2023-07-08T10:36:55;22.90;99.90
45319;DHT22;31057;48.498;32.260;2023-07-08T11:08:48;23.30;99.90
45319;DHT22;31057;48.498;32.260;2023-07-08T11:11:01;23.30;99.90
45319;DHT22;31057;48.498;32.260;2023-07-08T11:13:12;23.40;99.90
45319;DHT22;31057;48.498;32.260;2023-07-08T11:15:20;23.60;99.90
45319;DHT22;31057;48.498;32.260;2023-07-08T11:17:32;23.60;99.90
45319;DHT22;31057;48.498;32.260;2023-07-08T11:19:37;23.50;99.90
45319;DHT22;31057;48.498;32.260;2023-07-08T11:21:42;23.50;99.90
45319;DHT22;31057;48.498;32.260;2023-07-08T11:23:53;23.20;99.90
45319;DHT22;31057;48.498;32.260;2023-07-08T11:28:15;23.30;99.90
45319;DHT22;31057;48.498;32.260;2023-07-08T11:30:22;23.20;99.90
45319;DHT22;31057;48.498;32.260;2023-07-08T11:32:27;23.20;99.90
45319;DHT22;31057;48.498;32.260;2023-07-08T11:34:29;23.00;99.90
45319;DHT22;31057;48.498;32.260;2023-07-08T11:36:31;22.90;99.90
45319;DHT22;31057;48.498;32.260;2023-07-08T11:38:34;22.70;99.90
45319;DHT22;31057;48.498;32.260;2023-07-08T11:40:49;22.70;99.90
45319;DHT22;31057;48.498;32.260;2023-07-08T11:42:54;22.70;99.90
45319;DHT22;31057;48.498;32.260;2023-07-08T11:45:01;22.50;99.90
45319;DHT22;31057;48.498;32.260;2023-07-08T11:47:13;22.50;99.90
45319;DHT22;31057;48.498;32.260;2023-07-08T11:49:17;22.60;99.90
45319;DHT22;31057;48.498;32.260;2023-07-08T11:51:41;22.60;99.90
45319;DHT22;31057;48.498;32.260;2023-07-08T11:53:51;22.60;99.90
45319;DHT22;31057;48.498;32.260;2023-07-08T11:56:01;22.50;99.90
45319;DHT22;31057;48.498;32.260;2023-07-08T11:58:07;22.80;99.90
45319;DHT22;31057;48.498;32.260;2023-07-08T12:00:17;22.80;99.90
45319;DHT22;31057;48.498;32.260;2023-07-08T12:02:20;22.90;99.90
45319;DHT22;31057;48.498;32.260;2023-07-08T12:04:25;23.10;99.90
45319;DHT22;31057;48.498;32.260;2023-07-08T12:08:32;23.50;99.90
45319;DHT22;31057;48.498;32.260;2023-07-08T12:10:37;23.30;99.90
45319;DHT22;31057;48.498;32.260;2023-07-08T12:12:42;23.70;99.90
45319;DHT22;31057;48.498;32.260;2023-07-08T12:14:45;24.00;99.90
45319;DHT22;31057;48.498;32.260;2023-07-08T12:16:47;24.40;99.90
45319;DHT22;31057;48.498;32.260;2023-07-08T12:18:49;24.30;99.90
45319;DHT22;31057;48.498;32.260;2023-07-08T12:20:55;24.40;99.90
45319;DHT22;31057;48.498;32.260;2023-07-08T12:22:58;24.40;99.90
45319;DHT22;31057;48.498;32.260;2023-07-08T12:25:00;24.10;99.90
45319;DHT22;31057;48.498;32.260;2023-07-08T12:27:08;23.90;99.90
45319;DHT22;31057;48.498;32.260;2023-07-08T12:29:13;24.00;99.90
45319;DHT22;31057;48.498;32.260;2023-07-08T12:31:16;24.00;99.90
45319;DHT22;31057;48.498;32.260;2023-07-08T12:33:28;23.90;99.90
45319;DHT22;31057;48.498;32.260;2023-07-08T12:35:31;23.80;99.90
45319;DHT22;31057;48.498;32.260;2023-07-08T12:37:33;24.40;99.90
45319;DHT22;31057;48.498;32.260;2023-07-08T12:39:35;24.30;99.90
45319;DHT22;31057;48.498;32.260;2023-07-08T12:41:37;23.70;99.90
45319;DHT22;31057;48.498;32.260;2023-07-08T12:43:40;23.90;99.90
45319;DHT22;31057;48.498;32.260;2023-07-08T12:45:42;23.90;99.90
45319;DHT22;31057;48.498;32.260;2023-07-08T12:47:44;24.00;99.90
45319;DHT22;31057;48.498;32.260;2023-07-08T12:49:47;23.70;99.90
45319;DHT22;31057;48.498;32.260;2023-07-08T12:51:48;23.80;99.90
45319;DHT22;31057;48.498;32.260;2023-07-08T12:53:52;24.10;99.90
45319;DHT22;31057;48.498;32.260;2023-07-08T12:55:55;24.40;99.90
45319;DHT22;31057;48.498;32.260;2023-07-08T12:57:58;24.20;99.90
45319;DHT22;31057;48.498;32.260;2023-07-08T13:00:01;24.70;99.90
45319;DHT22;31057;48.498;32.260;2023-07-08T13:02:03;24.00;99.90
45319;DHT22;31057;48.498;32.260;2023-07-08T13:04:06;23.60;99.90
45319;DHT22;31057;48.498;32.260;2023-07-08T13:06:11;23.60;99.90
45319;DHT22;31057;48.498;32.260;2023-07-08T13:08:14;23.40;99.90
45319;DHT22;31057;48.498;32.260;2023-07-08T13:10:20;23.60;99.90
45319;DHT22;31057;48.498;32.260;2023-07-08T13:12:22;23.80;99.90
45319;DHT22;31057;48.498;32.260;2023-07-08T13:14:26;23.70;99.90
45319;DHT22;31057;48.498;32.260;2023-07-08T13:16:29;23.70;99.90
45319;DHT22;31057;48.498;32.260;2023-07-08T13:18:33;23.50;99.90
45319;DHT22;31057;48.498;32.260;2023-07-08T13:20:35;23.20;99.90
45319;DHT22;31057;48.498;32.260;2023-07-08T13:22:37;23.40;99.90
45319;DHT22;31057;48.498;32.260;2023-07-08T13:24:39;23.40;99.90
45319;DHT22;31057;48.498;32.260;2023-07-08T13:26:43;23.40;99.90
45319;DHT22;31057;48.498;32.260;2023-07-08T13:28:46;23.60;99.90
45319;DHT22;31057;48.498;32.260;2023-07-08T13:30:57;23.70;99.90
45319;DHT22;31057;48.498;32.260;2023-07-08T13:32:59;23.70;99.90
45319;DHT22;31057;48.498;32.260;2023-07-08T13:35:01;23.40;99.90
45319;DHT22;31057;48.498;32.260;2023-07-08T13:37:03;23.50;99.90
45319;DHT22;31057;48.498;32.260;2023-07-08T13:39:06;23.60;99.90
45319;DHT22;31057;48.498;32.260;2023-07-08T13:41:10;23.30;99.90
45319;DHT22;31057;48.498;32.260;2023-07-08T13:43:14;23.30;99.90
45319;DHT22;31057;48.498;32.260;2023-07-08T13:45:17;23.30;99.90
45319;DHT22;31057;48.498;32.260;2023-07-08T13:47:30;23.20;99.90
45319;DHT22;31057;48.498;32.260;2023-07-08T13:49:40;23.10;99.90
45319;DHT22;31057;48.498;32.260;2023-07-08T13:51:42;23.00;99.90
45319;DHT22;31057;48.498;32.260;2023-07-08T13:53:56;23.50;99.90
45319;DHT22;31057;48.498;32.260;2023-07-08T13:56:02;23.50;99.90
45319;DHT22;31057;48.498;32.260;2023-07-08T13:58:05;23.40;99.90
45319;DHT22;31057;48.498;32.260;2023-07-08T14:00:12;23.10;99.90
45319;DHT22;31057;48.498;32.260;2023-07-08T14:02:15;22.70;99.90
45319;DHT22;31057;48.498;32.260;2023-07-08T14:04:18;22.70;99.90
45319;DHT22;31057;48.498;32.260;2023-07-08T14:06:22;22.50;99.90
45319;DHT22;31057;48.498;32.260;2023-07-08T14:08:24;22.50;99.90
45319;DHT22;31057;48.498;32.260;2023-07-08T14:10:28;22.30;99.90
45319;DHT22;31057;48.498;32.260;2023-07-08T14:12:29;22.30;99.90
45319;DHT22;31057;48.498;32.260;2023-07-08T14:14:31;22.20;99.90
45319;DHT22;31057;48.498;32.260;2023-07-08T14:16:33;22.10;99.90
45319;DHT22;31057;48.498;32.260;2023-07-08T14:18:35;22.00;99.90
45319;DHT22;31057;48.498;32.260;2023-07-08T14:20:37;22.00;99.90
45319;DHT22;31057;48.498;32.260;2023-07-08T14:22:39;22.00;99.90
45319;DHT22;31057;48.498;32.260;2023-07-08T14:24:41;22.00;99.90
45319;DHT22;31057;48.498;32.260;2023-07-08T14:26:44;22.00;99.90
45319;DHT22;31057;48.498;32.260;2023-07-08T14:28:46;21.80;99.90
45319;DHT22;31057;48.498;32.260;2023-07-08T14:30:47;21.90;99.90
45319;DHT22;31057;48.498;32.260;2023-07-08T14:32:49;21.90;99.90
45319;DHT22;31057;48.498;32.260;2023-07-08T14:34:52;21.80;99.90
45319;DHT22;31057;48.498;32.260;2023-07-08T14:36:54;21.60;99.90
45319;DHT22;31057;48.498;32.260;2023-07-08T14:38:56;21.60;99.90
45319;DHT22;31057;48.498;32.260;2023-07-08T14:40:58;21.60;99.90
45319;DHT22;31057;48.498;32.260;2023-07-08T14:43:02;21.60;99.90
45319;DHT22;31057;48.498;32.260;2023-07-08T14:45:07;21.60;99.90
45319;DHT22;31057;48.498;32.260;2023-07-08T14:47:12;21.60;99.90
45319;DHT22;31057;48.498;32.260;2023-07-08T14:49:16;21.50;99.90
45319;DHT22;31057;48.498;32.260;2023-07-08T14:51:18;21.50;99.90
45319;DHT22;31057;48.498;32.260;2023-07-08T14:53:20;21.50;99.90
45319;DHT22;31057;48.498;32.260;2023-07-08T14:55:22;21.50;99.90
45319;DHT22;31057;48.498;32.260;2023-07-08T14:57:25;21.50;99.90
45319;DHT22;31057;48.498;32.260;2023-07-08T14:59:31;21.40;99.90
45319;DHT22;31057;48.498;32.260;2023-07-08T15:01:33;21.40;99.90
45319;DHT22;31057;48.498;32.260;2023-07-08T15:03:35;21.40;99.90
45319;DHT22;31057;48.498;32.260;2023-07-08T15:05:37;21.50;99.90
45319;DHT22;31057;48.498;32.260;2023-07-08T15:07:39;21.40;99.90
45319;DHT22;31057;48.498;32.260;2023-07-08T15:09:42;21.40;99.90
45319;DHT22;31057;48.498;32.260;2023-07-08T15:11:44;21.50;99.90
45319;DHT22;31057;48.498;32.260;2023-07-08T15:13:49;21.50;99.90
45319;DHT22;31057;48.498;32.260;2023-07-08T15:15:51;21.50;99.90
45319;DHT22;31057;48.498;32.260;2023-07-08T15:17:53;21.50;99.90
45319;DHT22;31057;48.498;32.260;2023-07-08T15:19:55;21.60;99.90
45319;DHT22;31057;48.498;32.260;2023-07-08T15:21:57;21.60;99.90
45319;DHT22;31057;48.498;32.260;2023-07-08T15:23:59;21.60;99.90
45319;DHT22;31057;48.498;32.260;2023-07-08T15:26:00;21.50;99.90
45319;DHT22;31057;48.498;32.260;2023-07-08T15:28:03;21.50;99.90
45319;DHT22;31057;48.498;32.260;2023-07-08T15:30:08;21.50;99.90
45319;DHT22;31057;48.498;32.260;2023-07-08T15:32:15;21.40;99.90
45319;DHT22;31057;48.498;32.260;2023-07-08T15:34:37;21.40;99.90
45319;DHT22;31057;48.498;32.260;2023-07-08T15:36:39;21.40;99.90
45319;DHT22;31057;48.498;32.260;2023-07-08T15:38:41;21.40;99.90
45319;DHT22;31057;48.498;32.260;2023-07-08T15:40:43;21.40;99.90
45319;DHT22;31057;48.498;32.260;2023-07-08T15:42:46;21.40;99.90
45319;DHT22;31057;48.498;32.260;2023-07-08T15:44:48;21.40;99.90
45319;DHT22;31057;48.498;32.260;2023-07-08T15:46:53;21.30;99.90
45319;DHT22;31057;48.498;32.260;2023-07-08T15:48:55;21.40;99.90
45319;DHT22;31057;48.498;32.260;2023-07-08T15:50:57;21.40;99.90
45319;DHT22;31057;48.498;32.260;2023-07-08T15:53:00;21.40;99.90
45319;DHT22;31057;48.498;32.260;2023-07-08T15:55:01;21.30;99.90
45319;DHT22;31057;48.498;32.260;2023-07-08T15:57:03;21.30;99.90
45319;DHT22;31057;48.498;32.260;2023-07-08T15:59:10;21.40;99.90
45319;DHT22;31057;48.498;32.260;2023-07-08T16:01:17;21.30;99.90
45319;DHT22;31057;48.498;32.260;2023-07-08T16:03:26;21.30;99.90
45319;DHT22;31057;48.498;32.260;2023-07-08T16:05:29;21.30;99.90
45319;DHT22;31057;48.498;32.260;2023-07-08T16:07:33;21.30;99.90
45319;DHT22;31057;48.498;32.260;2023-07-08T16:09:35;21.30;99.90
45319;DHT22;31057;48.498;32.260;2023-07-08T16:11:36;21.30;99.90
45319;DHT22;31057;48.498;32.260;2023-07-08T16:13:38;21.20;99.90
45319;DHT22;31057;48.498;32.260;2023-07-08T16:15:41;21.30;99.90
45319;DHT22;31057;48.498;32.260;2023-07-08T16:17:44;21.30;99.90
45319;DHT22;31057;48.498;32.260;2023-07-08T16:19:46;21.20;99.90
45319;DHT22;31057;48.498;32.260;2023-07-08T16:21:48;21.30;99.90
45319;DHT22;31057;48.498;32.260;2023-07-08T16:23:50;21.30;99.90
45319;DHT22;31057;48.498;32.260;2023-07-08T16:25:51;21.20;99.90
45319;DHT22;31057;48.498;32.260;2023-07-08T16:27:54;21.20;99.90
45319;DHT22;31057;48.498;32.260;2023-07-08T16:29:57;21.20;99.90
45319;DHT22;31057;48.498;32.260;2023-07-08T16:31:58;21.20;99.90
45319;DHT22;31057;48.498;32.260;2023-07-08T16:34:00;21.20;99.90
45319;DHT22;31057;48.498;32.260;2023-07-08T16:36:02;21.20;99.90
45319;DHT22;31057;48.498;32.260;2023-07-08T16:38:04;21.10;99.90
45319;DHT22;31057;48.498;32.260;2023-07-08T16:40:08;21.10;99.90
45319;DHT22;31057;48.498;32.260;2023-07-08T16:42:14;21.10;99.90
45319;DHT22;31057;48.498;32.260;2023-07-08T16:44:17;21.20;99.90
45319;DHT22;31057;48.498;32.260;2023-07-08T16:46:20;21.20;99.90
45319;DHT22;31057;48.498;32.260;2023-07-08T16:48:22;21.20;99.90
45319;DHT22;31057;48.498;32.260;2023-07-08T16:50:25;21.20;99.90
45319;DHT22;31057;48.498;32.260;2023-07-08T16:52:28;21.20;99.90
45319;DHT22;31057;48.498;32.260;2023-07-08T16:54:30;21.20;99.90
45319;DHT22;31057;48.498;32.260;2023-07-08T16:56:32;21.20;99.90
45319;DHT22;31057;48.498;32.260;2023-07-08T16:58:34;21.20;99.90
45319;DHT22;31057;48.498;32.260;2023-07-08T17:00:36;21.20;99.90
45319;DHT22;31057;48.498;32.260;2023-07-08T17:02:38;21.20;99.90
45319;DHT22;31057;48.498;32.260;2023-07-08T17:04:41;21.20;99.90
45319;DHT22;31057;48.498;32.260;2023-07-08T17:06:42;21.20;99.90
45319;DHT22;31057;48.498;32.260;2023-07-08T17:08:44;21.20;99.90
45319;DHT22;31057;48.498;32.260;2023-07-08T17:10:46;21.10;99.90
45319;DHT22;31057;48.498;32.260;2023-07-08T17:12:48;21.20;99.90
45319;DHT22;31057;48.498;32.260;2023-07-08T17:14:50;21.20;99.90
45319;DHT22;31057;48.498;32.260;2023-07-08T17:16:52;21.10;99.90
45319;DHT22;31057;48.498;32.260;2023-07-08T17:18:54;21.10;99.90
45319;DHT22;31057;48.498;32.260;2023-07-08T17:20:58;21.10;99.90
45319;DHT22;31057;48.498;32.260;2023-07-08T17:23:03;21.10;99.90
45319;DHT22;31057;48.498;32.260;2023-07-08T17:25:22;21.10;99.90
45319;DHT22;31057;48.498;32.260;2023-07-08T17:27:24;21.10;99.90
45319;DHT22;31057;48.498;32.260;2023-07-08T17:29:25;21.10;99.90
45319;DHT22;31057;48.498;32.260;2023-07-08T17:31:28;21.10;99.90
45319;DHT22;31057;48.498;32.260;2023-07-08T17:33:48;21.10;99.90
45319;DHT22;31057;48.498;32.260;2023-07-08T17:35:51;21.10;99.90
45319;DHT22;31057;48.498;32.260;2023-07-08T17:37:55;21.10;99.90
45319;DHT22;31057;48.498;32.260;2023-07-08T17:39:58;21.10;99.90
45319;DHT22;31057;48.498;32.260;2023-07-08T17:42:00;21.10;99.90
45319;DHT22;31057;48.498;32.260;2023-07-08T17:44:02;21.00;99.90
45319;DHT22;31057;48.498;32.260;2023-07-08T17:46:04;21.10;99.90
45319;DHT22;31057;48.498;32.260;2023-07-08T17:48:22;21.10;99.90
45319;DHT22;31057;48.498;32.260;2023-07-08T17:50:26;21.10;99.90
45319;DHT22;31057;48.498;32.260;2023-07-08T17:52:28;21.10;99.90
45319;DHT22;31057;48.498;32.260;2023-07-08T17:54:30;21.00;99.90
45319;DHT22;31057;48.498;32.260;2023-07-08T17:56:36;21.00;99.90
45319;DHT22;31057;48.498;32.260;2023-07-08T17:58:38;21.00;99.90
45319;DHT22;31057;48.498;32.260;2023-07-08T18:00:40;21.00;99.90
45319;DHT22;31057;48.498;32.260;2023-07-08T18:02:43;21.00;99.90
45319;DHT22;31057;48.498;32.260;2023-07-08T18:04:44;21.00;99.90
45319;DHT22;31057;48.498;32.260;2023-07-08T18:06:46;21.00;99.90
45319;DHT22;31057;48.498;32.260;2023-07-08T18:08:49;21.00;99.90
45319;DHT22;31057;48.498;32.260;2023-07-08T18:10:51;20.90;99.90
45319;DHT22;31057;48.498;32.260;2023-07-08T18:12:54;20.90;99.90
45319;DHT22;31057;48.498;32.260;2023-07-08T18:14:56;20.90;99.90
45319;DHT22;31057;48.498;32.260;2023-07-08T18:16:58;20.90;99.90
45319;DHT22;31057;48.498;32.260;2023-07-08T18:18:59;20.80;99.90
45319;DHT22;31057;48.498;32.260;2023-07-08T18:21:01;20.80;99.90
45319;DHT22;31057;48.498;32.260;2023-07-08T18:23:04;20.80;99.90
45319;DHT22;31057;48.498;32.260;2023-07-08T18:25:11;20.80;99.90
45319;DHT22;31057;48.498;32.260;2023-07-08T18:27:13;20.80;99.90
45319;DHT22;31057;48.498;32.260;2023-07-08T18:29:15;20.80;99.90
45319;DHT22;31057;48.498;32.260;2023-07-08T18:31:21;20.80;99.90
45319;DHT22;31057;48.498;32.260;2023-07-08T18:33:25;20.80;99.90
45319;DHT22;31057;48.498;32.260;2023-07-08T18:35:28;20.80;99.90
45319;DHT22;31057;48.498;32.260;2023-07-08T18:37:30;20.70;99.90
45319;DHT22;31057;48.498;32.260;2023-07-08T18:39:32;20.70;99.90
45319;DHT22;31057;48.498;32.260;2023-07-08T18:41:38;20.70;99.90
45319;DHT22;31057;48.498;32.260;2023-07-08T18:43:42;20.70;99.90
45319;DHT22;31057;48.498;32.260;2023-07-08T18:45:44;20.70;99.90
45319;DHT22;31057;48.498;32.260;2023-07-08T18:47:46;20.70;99.90
45319;DHT22;31057;48.498;32.260;2023-07-08T18:49:48;20.70;99.90
45319;DHT22;31057;48.498;32.260;2023-07-08T18:51:50;20.60;99.90
45319;DHT22;31057;48.498;32.260;2023-07-08T18:53:52;20.60;99.90
45319;DHT22;31057;48.498;32.260;2023-07-08T18:55:54;20.70;99.90
45319;DHT22;31057;48.498;32.260;2023-07-08T18:57:56;20.60;99.90
45319;DHT22;31057;48.498;32.260;2023-07-08T18:59:58;20.70;99.90
45319;DHT22;31057;48.498;32.260;2023-07-08T19:01:59;20.70;99.90
45319;DHT22;31057;48.498;32.260;2023-07-08T19:04:01;20.70;99.90
45319;DHT22;31057;48.498;32.260;2023-07-08T19:06:04;20.70;99.90
45319;DHT22;31057;48.498;32.260;2023-07-08T19:08:07;20.60;99.90
45319;DHT22;31057;48.498;32.260;2023-07-08T19:10:10;20.70;99.90
45319;DHT22;31057;48.498;32.260;2023-07-08T19:12:12;20.60;99.90
45319;DHT22;31057;48.498;32.260;2023-07-08T19:14:14;20.70;99.90
45319;DHT22;31057;48.498;32.260;2023-07-08T19:16:17;20.60;99.90
45319;DHT22;31057;48.498;32.260;2023-07-08T19:18:22;20.60;99.90
45319;DHT22;31057;48.498;32.260;2023-07-08T19:20:37;20.60;99.90
45319;DHT22;31057;48.498;32.260;2023-07-08T19:22:39;20.60;99.90
45319;DHT22;31057;48.498;32.260;2023-07-08T19:24:41;20.60;99.90
45319;DHT22;31057;48.498;32.260;2023-07-08T19:26:43;20.60;99.90
45319;DHT22;31057;48.498;32.260;2023-07-08T19:28:45;20.60;99.90
45319;DHT22;31057;48.498;32.260;2023-07-08T19:30:50;20.60;99.90
45319;DHT22;31057;48.498;32.260;2023-07-08T19:32:54;20.60;99.90
45319;DHT22;31057;48.498;32.260;2023-07-08T19:34:58;20.60;99.90
45319;DHT22;31057;48.498;32.260;2023-07-08T19:37:00;20.60;99.90
45319;DHT22;31057;48.498;32.260;2023-07-08T19:39:02;20.60;99.90
45319;DHT22;31057;48.498;32.260;2023-07-08T19:41:07;20.60;99.90
45319;DHT22;31057;48.498;32.260;2023-07-08T19:43:10;20.60;99.90
45319;DHT22;31057;48.498;32.260;2023-07-08T19:45:17;20.50;99.90
45319;DHT22;31057;48.498;32.260;2023-07-08T19:47:19;20.60;99.90
45319;DHT22;31057;48.498;32.260;2023-07-08T19:49:21;20.50;99.90
45319;DHT22;31057;48.498;32.260;2023-07-08T19:51:23;20.60;99.90
45319;DHT22;31057;48.498;32.260;2023-07-08T19:53:24;20.60;99.90
45319;DHT22;31057;48.498;32.260;2023-07-08T19:55:26;20.60;99.90
45319;DHT22;31057;48.498;32.260;2023-07-08T19:57:28;20.50;99.90
45319;DHT22;31057;48.498;32.260;2023-07-08T19:59:30;20.60;99.90
45319;DHT22;31057;48.498;32.260;2023-07-08T20:01:32;20.60;99.90
45319;DHT22;31057;48.498;32.260;2023-07-08T20:03:34;20.60;99.90
45319;DHT22;31057;48.498;32.260;2023-07-08T20:05:36;20.50;99.90
45319;DHT22;31057;48.498;32.260;2023-07-08T20:07:39;20.50;99.90
45319;DHT22;31057;48.498;32.260;2023-07-08T20:09:42;20.50;99.90
45319;DHT22;31057;48.498;32.260;2023-07-08T20:11:44;20.40;99.90
45319;DHT22;31057;48.498;32.260;2023-07-08T20:13:46;20.20;99.90
45319;DHT22;31057;48.498;32.260;2023-07-08T20:15:48;20.00;99.90
45319;DHT22;31057;48.498;32.260;2023-07-08T20:17:50;19.80;99.90
45319;DHT22;31057;48.498;32.260;2023-07-08T20:19:52;19.80;99.90
45319;DHT22;31057;48.498;32.260;2023-07-08T20:21:55;19.80;99.90
45319;DHT22;31057;48.498;32.260;2023-07-08T20:23:57;19.70;99.90
45319;DHT22;31057;48.498;32.260;2023-07-08T20:25:59;19.50;99.90
45319;DHT22;31057;48.498;32.260;2023-07-08T20:28:02;19.40;99.90
45319;DHT22;31057;48.498;32.260;2023-07-08T20:30:09;19.40;99.90
45319;DHT22;31057;48.498;32.260;2023-07-08T20:32:14;19.30;99.90
45319;DHT22;31057;48.498;32.260;2023-07-08T20:34:16;19.40;99.90
45319;DHT22;31057;48.498;32.260;2023-07-08T20:36:20;19.40;99.90
45319;DHT22;31057;48.498;32.260;2023-07-08T20:38:22;19.30;99.90
45319;DHT22;31057;48.498;32.260;2023-07-08T20:40:25;19.30;99.90